sensor_id;sensor_type;location;lat;lon;timestamp;P1;durP1;ratioP1;P2;durP2;ratioP2
12369;SDS011;6249;52.128;9.986;2023-04-03T00:00:04;12.63;;;2.30;;
12369;SDS011;6249;52.128;9.986;2023-04-03T00:03:25;6.10;;;1.53;;
12369;SDS011;6249;52.128;9.986;2023-04-03T00:06:46;6.20;;;2.00;;
12369;SDS011;6249;52.128;9.986;2023-04-03T00:10:06;9.10;;;2.00;;
12369;SDS011;6249;52.128;9.986;2023-04-03T00:13:28;6.17;;;2.00;;
12369;SDS011;6249;52.128;9.986;2023-04-03T00:16:48;7.87;;;2.10;;
12369;SDS011;6249;52.128;9.986;2023-04-03T00:20:11;9.57;;;2.27;;
12369;SDS011;6249;52.128;9.986;2023-04-03T00:23:34;8.37;;;2.00;;
12369;SDS011;6249;52.128;9.986;2023-04-03T00:26:55;10.80;;;2.20;;
12369;SDS011;6249;52.128;9.986;2023-04-03T00:30:19;11.97;;;1.87;;
12369;SDS011;6249;52.128;9.986;2023-04-03T00:33:40;9.13;;;2.50;;
12369;SDS011;6249;52.128;9.986;2023-04-03T00:37:01;6.73;;;1.70;;
12369;SDS011;6249;52.128;9.986;2023-04-03T00:40:23;9.10;;;1.90;;
12369;SDS011;6249;52.128;9.986;2023-04-03T00:43:44;8.00;;;2.20;;
12369;SDS011;6249;52.128;9.986;2023-04-03T00:47:05;16.27;;;3.30;;
12369;SDS011;6249;52.128;9.986;2023-04-03T00:50:29;6.87;;;2.33;;
12369;SDS011;6249;52.128;9.986;2023-04-03T00:53:56;8.30;;;2.33;;
12369;SDS011;6249;52.128;9.986;2023-04-03T00:57:20;6.93;;;2.13;;
12369;SDS011;6249;52.128;9.986;2023-04-03T01:00:46;5.93;;;1.90;;
12369;SDS011;6249;52.128;9.986;2023-04-03T01:07:56;9.47;;;2.03;;
12369;SDS011;6249;52.128;9.986;2023-04-03T01:11:19;12.90;;;2.03;;
12369;SDS011;6249;52.128;9.986;2023-04-03T01:14:49;7.20;;;1.70;;
12369;SDS011;6249;52.128;9.986;2023-04-03T01:18:13;10.17;;;2.50;;
12369;SDS011;6249;52.128;9.986;2023-04-03T01:25:05;6.53;;;1.50;;
12369;SDS011;6249;52.128;9.986;2023-04-03T01:28:30;8.20;;;1.97;;
12369;SDS011;6249;52.128;9.986;2023-04-03T01:31:53;9.53;;;2.23;;
12369;SDS011;6249;52.128;9.986;2023-04-03T01:35:19;5.03;;;1.80;;
12369;SDS011;6249;52.128;9.986;2023-04-03T01:38:39;5.20;;;2.10;;
12369;SDS011;6249;52.128;9.986;2023-04-03T01:42:02;11.47;;;2.13;;
12369;SDS011;6249;52.128;9.986;2023-04-03T01:45:26;5.80;;;1.70;;
12369;SDS011;6249;52.128;9.986;2023-04-03T01:48:46;16.20;;;2.17;;
12369;SDS011;6249;52.128;9.986;2023-04-03T01:52:10;9.73;;;2.13;;
12369;SDS011;6249;52.128;9.986;2023-04-03T01:55:31;6.90;;;2.30;;
12369;SDS011;6249;52.128;9.986;2023-04-03T01:58:51;13.40;;;2.23;;
12369;SDS011;6249;52.128;9.986;2023-04-03T02:02:12;7.40;;;1.97;;
12369;SDS011;6249;52.128;9.986;2023-04-03T02:05:38;11.13;;;2.63;;
12369;SDS011;6249;52.128;9.986;2023-04-03T02:08:58;13.47;;;2.73;;
12369;SDS011;6249;52.128;9.986;2023-04-03T02:12:19;12.87;;;1.80;;
12369;SDS011;6249;52.128;9.986;2023-04-03T02:15:42;9.87;;;2.00;;
12369;SDS011;6249;52.128;9.986;2023-04-03T02:19:02;9.23;;;2.37;;
12369;SDS011;6249;52.128;9.986;2023-04-03T02:22:23;9.10;;;1.90;;
12369;SDS011;6249;52.128;9.986;2023-04-03T02:25:46;4.90;;;1.60;;
12369;SDS011;6249;52.128;9.986;2023-04-03T02:29:09;6.87;;;2.10;;
12369;SDS011;6249;52.128;9.986;2023-04-03T02:32:29;8.20;;;1.90;;
12369;SDS011;6249;52.128;9.986;2023-04-03T02:35:54;11.33;;;2.77;;
12369;SDS011;6249;52.128;9.986;2023-04-03T02:39:15;9.10;;;2.23;;
12369;SDS011;6249;52.128;9.986;2023-04-03T02:42:36;7.43;;;2.53;;
12369;SDS011;6249;52.128;9.986;2023-04-03T02:45:56;7.83;;;2.00;;
12369;SDS011;6249;52.128;9.986;2023-04-03T02:49:19;13.30;;;3.50;;
12369;SDS011;6249;52.128;9.986;2023-04-03T02:52:42;16.03;;;1.90;;
12369;SDS011;6249;52.128;9.986;2023-04-03T02:56:03;8.80;;;2.30;;
12369;SDS011;6249;52.128;9.986;2023-04-03T02:59:28;11.37;;;2.40;;
12369;SDS011;6249;52.128;9.986;2023-04-03T03:02:49;7.47;;;1.87;;
12369;SDS011;6249;52.128;9.986;2023-04-03T03:06:11;6.40;;;2.10;;
12369;SDS011;6249;52.128;9.986;2023-04-03T03:09:33;10.50;;;2.40;;
12369;SDS011;6249;52.128;9.986;2023-04-03T03:12:54;5.50;;;1.93;;
12369;SDS011;6249;52.128;9.986;2023-04-03T03:16:19;8.33;;;2.30;;
12369;SDS011;6249;52.128;9.986;2023-04-03T03:19:40;13.90;;;2.50;;
12369;SDS011;6249;52.128;9.986;2023-04-03T03:23:00;12.77;;;1.97;;
12369;SDS011;6249;52.128;9.986;2023-04-03T03:26:21;5.47;;;2.47;;
12369;SDS011;6249;52.128;9.986;2023-04-03T03:29:42;12.03;;;2.67;;
12369;SDS011;6249;52.128;9.986;2023-04-03T03:33:03;5.30;;;1.97;;
12369;SDS011;6249;52.128;9.986;2023-04-03T03:36:25;7.20;;;3.47;;
12369;SDS011;6249;52.128;9.986;2023-04-03T03:39:46;4.27;;;1.77;;
12369;SDS011;6249;52.128;9.986;2023-04-03T03:43:07;5.90;;;1.67;;
12369;SDS011;6249;52.128;9.986;2023-04-03T03:46:27;7.40;;;2.10;;
12369;SDS011;6249;52.128;9.986;2023-04-03T03:49:48;4.63;;;1.67;;
12369;SDS011;6249;52.128;9.986;2023-04-03T03:53:08;12.67;;;2.20;;
12369;SDS011;6249;52.128;9.986;2023-04-03T03:56:29;6.97;;;2.23;;
12369;SDS011;6249;52.128;9.986;2023-04-03T03:59:52;12.40;;;2.20;;
12369;SDS011;6249;52.128;9.986;2023-04-03T04:03:13;16.13;;;2.07;;
12369;SDS011;6249;52.128;9.986;2023-04-03T04:06:33;12.53;;;2.13;;
12369;SDS011;6249;52.128;9.986;2023-04-03T04:09:54;15.20;;;2.70;;
12369;SDS011;6249;52.128;9.986;2023-04-03T04:13:15;5.83;;;2.40;;
12369;SDS011;6249;52.128;9.986;2023-04-03T04:16:36;19.67;;;2.60;;
12369;SDS011;6249;52.128;9.986;2023-04-03T04:19:59;9.47;;;2.03;;
12369;SDS011;6249;52.128;9.986;2023-04-03T04:23:23;7.47;;;2.30;;
12369;SDS011;6249;52.128;9.986;2023-04-03T04:26:46;11.50;;;2.67;;
12369;SDS011;6249;52.128;9.986;2023-04-03T04:30:09;7.33;;;2.20;;
12369;SDS011;6249;52.128;9.986;2023-04-03T04:33:32;7.87;;;2.40;;
12369;SDS011;6249;52.128;9.986;2023-04-03T04:36:53;8.30;;;1.70;;
12369;SDS011;6249;52.128;9.986;2023-04-03T04:40:16;9.67;;;2.57;;
12369;SDS011;6249;52.128;9.986;2023-04-03T04:43:39;7.83;;;2.00;;
12369;SDS011;6249;52.128;9.986;2023-04-03T04:47:02;14.00;;;2.20;;
12369;SDS011;6249;52.128;9.986;2023-04-03T04:50:32;8.10;;;1.93;;
12369;SDS011;6249;52.128;9.986;2023-04-03T04:53:52;7.57;;;2.00;;
12369;SDS011;6249;52.128;9.986;2023-04-03T04:57:15;10.80;;;3.00;;
12369;SDS011;6249;52.128;9.986;2023-04-03T05:00:38;10.10;;;2.00;;
12369;SDS011;6249;52.128;9.986;2023-04-03T05:04:01;17.90;;;2.73;;
12369;SDS011;6249;52.128;9.986;2023-04-03T05:07:22;14.53;;;2.90;;
12369;SDS011;6249;52.128;9.986;2023-04-03T05:10:45;13.97;;;2.10;;
12369;SDS011;6249;52.128;9.986;2023-04-03T05:14:06;8.73;;;2.40;;
12369;SDS011;6249;52.128;9.986;2023-04-03T05:17:27;9.47;;;2.73;;
12369;SDS011;6249;52.128;9.986;2023-04-03T05:20:48;7.77;;;2.10;;
12369;SDS011;6249;52.128;9.986;2023-04-03T05:24:12;6.20;;;2.27;;
12369;SDS011;6249;52.128;9.986;2023-04-03T05:27:32;10.73;;;2.43;;
12369;SDS011;6249;52.128;9.986;2023-04-03T05:30:54;13.47;;;2.20;;
12369;SDS011;6249;52.128;9.986;2023-04-03T05:34:15;13.07;;;2.07;;
12369;SDS011;6249;52.128;9.986;2023-04-03T05:37:36;10.43;;;2.27;;
12369;SDS011;6249;52.128;9.986;2023-04-03T05:40:57;5.47;;;1.87;;
12369;SDS011;6249;52.128;9.986;2023-04-03T05:44:17;9.57;;;2.20;;
12369;SDS011;6249;52.128;9.986;2023-04-03T05:47:40;6.93;;;2.37;;
12369;SDS011;6249;52.128;9.986;2023-04-03T05:51:01;7.70;;;2.13;;
12369;SDS011;6249;52.128;9.986;2023-04-03T05:54:23;10.67;;;2.70;;
12369;SDS011;6249;52.128;9.986;2023-04-03T05:57:45;6.70;;;2.20;;
12369;SDS011;6249;52.128;9.986;2023-04-03T06:01:06;13.50;;;2.80;;
12369;SDS011;6249;52.128;9.986;2023-04-03T06:04:27;6.70;;;1.80;;
12369;SDS011;6249;52.128;9.986;2023-04-03T06:07:50;14.20;;;2.27;;
12369;SDS011;6249;52.128;9.986;2023-04-03T06:11:11;8.17;;;2.40;;
12369;SDS011;6249;52.128;9.986;2023-04-03T06:14:32;12.60;;;2.50;;
12369;SDS011;6249;52.128;9.986;2023-04-03T06:17:52;6.20;;;1.87;;
12369;SDS011;6249;52.128;9.986;2023-04-03T06:21:13;16.80;;;3.13;;
12369;SDS011;6249;52.128;9.986;2023-04-03T06:24:36;9.47;;;1.80;;
12369;SDS011;6249;52.128;9.986;2023-04-03T06:27:58;13.60;;;2.63;;
12369;SDS011;6249;52.128;9.986;2023-04-03T06:31:19;15.10;;;2.30;;
12369;SDS011;6249;52.128;9.986;2023-04-03T06:34:40;8.87;;;2.07;;
12369;SDS011;6249;52.128;9.986;2023-04-03T06:38:01;7.30;;;2.23;;
12369;SDS011;6249;52.128;9.986;2023-04-03T06:41:26;15.33;;;2.80;;
12369;SDS011;6249;52.128;9.986;2023-04-03T06:44:49;7.37;;;2.30;;
12369;SDS011;6249;52.128;9.986;2023-04-03T06:48:10;9.10;;;2.50;;
12369;SDS011;6249;52.128;9.986;2023-04-03T06:51:31;9.47;;;2.23;;
12369;SDS011;6249;52.128;9.986;2023-04-03T06:54:52;14.60;;;2.17;;
12369;SDS011;6249;52.128;9.986;2023-04-03T06:58:17;9.10;;;2.40;;
12369;SDS011;6249;52.128;9.986;2023-04-03T07:01:37;7.77;;;2.10;;
12369;SDS011;6249;52.128;9.986;2023-04-03T07:05:00;11.07;;;2.23;;
12369;SDS011;6249;52.128;9.986;2023-04-03T07:08:23;7.60;;;2.27;;
12369;SDS011;6249;52.128;9.986;2023-04-03T07:11:45;9.00;;;2.10;;
12369;SDS011;6249;52.128;9.986;2023-04-03T07:15:06;7.23;;;2.20;;
12369;SDS011;6249;52.128;9.986;2023-04-03T07:18:28;19.23;;;2.87;;
12369;SDS011;6249;52.128;9.986;2023-04-03T07:21:51;10.57;;;2.73;;
12369;SDS011;6249;52.128;9.986;2023-04-03T07:25:14;7.13;;;2.00;;
12369;SDS011;6249;52.128;9.986;2023-04-03T07:28:35;7.30;;;1.90;;
12369;SDS011;6249;52.128;9.986;2023-04-03T07:31:56;11.23;;;3.53;;
12369;SDS011;6249;52.128;9.986;2023-04-03T07:35:17;6.93;;;1.60;;
12369;SDS011;6249;52.128;9.986;2023-04-03T07:38:38;7.70;;;2.00;;
12369;SDS011;6249;52.128;9.986;2023-04-03T07:41:59;12.10;;;2.47;;
12369;SDS011;6249;52.128;9.986;2023-04-03T07:45:20;6.43;;;1.57;;
12369;SDS011;6249;52.128;9.986;2023-04-03T07:48:43;6.77;;;1.87;;
12369;SDS011;6249;52.128;9.986;2023-04-03T07:52:05;7.70;;;1.83;;
12369;SDS011;6249;52.128;9.986;2023-04-03T07:55:27;8.67;;;2.17;;
12369;SDS011;6249;52.128;9.986;2023-04-03T07:58:49;9.30;;;2.00;;
12369;SDS011;6249;52.128;9.986;2023-04-03T08:02:11;6.63;;;2.87;;
12369;SDS011;6249;52.128;9.986;2023-04-03T08:05:36;6.17;;;2.03;;
12369;SDS011;6249;52.128;9.986;2023-04-03T08:08:57;8.63;;;1.83;;
12369;SDS011;6249;52.128;9.986;2023-04-03T08:12:18;8.20;;;1.77;;
12369;SDS011;6249;52.128;9.986;2023-04-03T08:15:39;9.43;;;2.63;;
12369;SDS011;6249;52.128;9.986;2023-04-03T08:19:02;9.40;;;1.97;;
12369;SDS011;6249;52.128;9.986;2023-04-03T08:22:23;7.30;;;2.30;;
12369;SDS011;6249;52.128;9.986;2023-04-03T08:25:46;8.60;;;1.93;;
12369;SDS011;6249;52.128;9.986;2023-04-03T08:29:06;10.40;;;2.17;;
12369;SDS011;6249;52.128;9.986;2023-04-03T08:32:27;8.23;;;2.13;;
12369;SDS011;6249;52.128;9.986;2023-04-03T08:35:48;12.43;;;2.43;;
12369;SDS011;6249;52.128;9.986;2023-04-03T08:39:08;7.70;;;3.13;;
12369;SDS011;6249;52.128;9.986;2023-04-03T08:50:21;10.37;;;1.80;;
12369;SDS011;6249;52.128;9.986;2023-04-03T08:54:04;9.90;;;2.03;;
12369;SDS011;6249;52.128;9.986;2023-04-03T08:57:49;9.00;;;2.57;;
12369;SDS011;6249;52.128;9.986;2023-04-03T09:04:56;11.67;;;1.70;;
12369;SDS011;6249;52.128;9.986;2023-04-03T09:08:24;6.43;;;1.60;;
12369;SDS011;6249;52.128;9.986;2023-04-03T09:16:15;6.87;;;1.37;;
12369;SDS011;6249;52.128;9.986;2023-04-03T09:19:57;4.30;;;1.40;;
12369;SDS011;6249;52.128;9.986;2023-04-03T09:26:56;5.77;;;1.30;;
12369;SDS011;6249;52.128;9.986;2023-04-03T09:30:24;8.33;;;1.60;;
12369;SDS011;6249;52.128;9.986;2023-04-03T09:33:46;8.57;;;1.80;;
12369;SDS011;6249;52.128;9.986;2023-04-03T09:37:10;5.30;;;1.13;;
12369;SDS011;6249;52.128;9.986;2023-04-03T09:41:06;5.23;;;1.30;;
12369;SDS011;6249;52.128;9.986;2023-04-03T09:44:36;5.60;;;1.20;;
12369;SDS011;6249;52.128;9.986;2023-04-03T09:51:34;8.77;;;1.80;;
12369;SDS011;6249;52.128;9.986;2023-04-03T09:54:55;4.20;;;1.10;;
12369;SDS011;6249;52.128;9.986;2023-04-03T09:58:35;7.23;;;2.70;;
12369;SDS011;6249;52.128;9.986;2023-04-03T10:02:23;8.03;;;1.83;;
12369;SDS011;6249;52.128;9.986;2023-04-03T10:05:58;4.00;;;1.57;;
12369;SDS011;6249;52.128;9.986;2023-04-03T10:09:20;6.17;;;1.63;;
12369;SDS011;6249;52.128;9.986;2023-04-03T10:12:41;7.73;;;1.53;;
12369;SDS011;6249;52.128;9.986;2023-04-03T10:16:12;4.07;;;1.10;;
12369;SDS011;6249;52.128;9.986;2023-04-03T10:19:39;3.87;;;1.00;;
12369;SDS011;6249;52.128;9.986;2023-04-03T10:23:12;6.53;;;2.33;;
12369;SDS011;6249;52.128;9.986;2023-04-03T10:26:50;5.77;;;1.07;;
12369;SDS011;6249;52.128;9.986;2023-04-03T10:34:06;4.40;;;1.10;;
12369;SDS011;6249;52.128;9.986;2023-04-03T10:37:55;9.20;;;1.57;;
12369;SDS011;6249;52.128;9.986;2023-04-03T10:45:08;3.83;;;1.10;;
12369;SDS011;6249;52.128;9.986;2023-04-03T10:56:23;6.87;;;1.57;;
12369;SDS011;6249;52.128;9.986;2023-04-03T10:59:56;3.07;;;0.90;;
12369;SDS011;6249;52.128;9.986;2023-04-03T11:03:30;7.23;;;1.20;;
12369;SDS011;6249;52.128;9.986;2023-04-03T11:07:08;4.37;;;1.00;;
12369;SDS011;6249;52.128;9.986;2023-04-03T11:10:41;4.10;;;1.00;;
12369;SDS011;6249;52.128;9.986;2023-04-03T11:17:48;4.93;;;1.20;;
12369;SDS011;6249;52.128;9.986;2023-04-03T11:21:32;6.90;;;1.60;;
12369;SDS011;6249;52.128;9.986;2023-04-03T11:25:02;6.10;;;1.20;;
12369;SDS011;6249;52.128;9.986;2023-04-03T11:28:26;3.97;;;1.23;;
12369;SDS011;6249;52.128;9.986;2023-04-03T11:35:46;5.23;;;1.20;;
12369;SDS011;6249;52.128;9.986;2023-04-03T11:39:16;5.00;;;1.33;;
12369;SDS011;6249;52.128;9.986;2023-04-03T11:50:30;5.13;;;1.10;;
12369;SDS011;6249;52.128;9.986;2023-04-03T11:53:51;3.97;;;1.00;;
12369;SDS011;6249;52.128;9.986;2023-04-03T12:01:05;7.90;;;1.20;;
12369;SDS011;6249;52.128;9.986;2023-04-03T12:04:29;3.10;;;1.10;;
12369;SDS011;6249;52.128;9.986;2023-04-03T12:11:45;3.23;;;1.00;;
12369;SDS011;6249;52.128;9.986;2023-04-03T12:18:53;7.43;;;1.37;;
12369;SDS011;6249;52.128;9.986;2023-04-03T12:22:24;6.40;;;1.77;;
12369;SDS011;6249;52.128;9.986;2023-04-03T12:25:49;5.03;;;1.50;;
12369;SDS011;6249;52.128;9.986;2023-04-03T12:29:21;4.60;;;1.23;;
12369;SDS011;6249;52.128;9.986;2023-04-03T12:32:57;8.03;;;1.60;;
12369;SDS011;6249;52.128;9.986;2023-04-03T12:40:25;5.60;;;1.07;;
12369;SDS011;6249;52.128;9.986;2023-04-03T12:44:15;7.10;;;1.60;;
12369;SDS011;6249;52.128;9.986;2023-04-03T12:47:47;3.90;;;1.20;;
12369;SDS011;6249;52.128;9.986;2023-04-03T12:51:14;5.70;;;1.47;;
12369;SDS011;6249;52.128;9.986;2023-04-03T12:54:38;3.20;;;0.97;;
12369;SDS011;6249;52.128;9.986;2023-04-03T13:02:00;4.83;;;1.30;;
12369;SDS011;6249;52.128;9.986;2023-04-03T13:05:27;4.30;;;1.70;;
12369;SDS011;6249;52.128;9.986;2023-04-03T13:08:49;4.40;;;1.43;;
12369;SDS011;6249;52.128;9.986;2023-04-03T13:12:16;4.30;;;1.40;;
12369;SDS011;6249;52.128;9.986;2023-04-03T13:15:41;4.87;;;1.43;;
12369;SDS011;6249;52.128;9.986;2023-04-03T13:19:04;6.30;;;1.70;;
12369;SDS011;6249;52.128;9.986;2023-04-03T13:22:36;4.13;;;1.17;;
12369;SDS011;6249;52.128;9.986;2023-04-03T13:26:07;4.10;;;1.17;;
12369;SDS011;6249;52.128;9.986;2023-04-03T13:29:35;3.97;;;1.40;;
12369;SDS011;6249;52.128;9.986;2023-04-03T13:32:58;4.20;;;1.33;;
12369;SDS011;6249;52.128;9.986;2023-04-03T13:36:21;4.40;;;1.57;;
12369;SDS011;6249;52.128;9.986;2023-04-03T13:43:28;6.27;;;1.47;;
12369;SDS011;6249;52.128;9.986;2023-04-03T13:46:58;5.43;;;1.40;;
12369;SDS011;6249;52.128;9.986;2023-04-03T13:50:21;4.50;;;1.07;;
12369;SDS011;6249;52.128;9.986;2023-04-03T13:57:17;4.20;;;1.30;;
12369;SDS011;6249;52.128;9.986;2023-04-03T14:00:48;5.87;;;1.53;;
12369;SDS011;6249;52.128;9.986;2023-04-03T14:08:04;3.60;;;1.27;;
12369;SDS011;6249;52.128;9.986;2023-04-03T14:11:28;6.77;;;1.30;;
12369;SDS011;6249;52.128;9.986;2023-04-03T14:14:50;6.00;;;1.70;;
12369;SDS011;6249;52.128;9.986;2023-04-03T14:18:14;3.93;;;1.20;;
12369;SDS011;6249;52.128;9.986;2023-04-03T14:21:38;5.87;;;1.40;;
12369;SDS011;6249;52.128;9.986;2023-04-03T14:24:59;12.80;;;1.43;;
12369;SDS011;6249;52.128;9.986;2023-04-03T14:28:25;4.07;;;1.63;;
12369;SDS011;6249;52.128;9.986;2023-04-03T14:31:46;7.03;;;2.77;;
12369;SDS011;6249;52.128;9.986;2023-04-03T14:35:09;6.13;;;1.47;;
12369;SDS011;6249;52.128;9.986;2023-04-03T14:38:30;3.10;;;1.07;;
12369;SDS011;6249;52.128;9.986;2023-04-03T14:41:53;5.63;;;1.50;;
12369;SDS011;6249;52.128;9.986;2023-04-03T14:45:17;5.10;;;1.23;;
12369;SDS011;6249;52.128;9.986;2023-04-03T14:48:41;4.50;;;1.40;;
12369;SDS011;6249;52.128;9.986;2023-04-03T14:52:05;3.90;;;1.50;;
12369;SDS011;6249;52.128;9.986;2023-04-03T14:55:26;6.70;;;1.27;;
12369;SDS011;6249;52.128;9.986;2023-04-03T14:58:48;6.53;;;1.40;;
12369;SDS011;6249;52.128;9.986;2023-04-03T15:02:31;4.50;;;1.50;;
12369;SDS011;6249;52.128;9.986;2023-04-03T15:05:51;4.30;;;1.63;;
12369;SDS011;6249;52.128;9.986;2023-04-03T15:09:18;5.93;;;1.70;;
12369;SDS011;6249;52.128;9.986;2023-04-03T15:12:44;6.33;;;1.23;;
12369;SDS011;6249;52.128;9.986;2023-04-03T15:16:12;4.87;;;1.43;;
12369;SDS011;6249;52.128;9.986;2023-04-03T15:19:38;6.37;;;1.73;;
12369;SDS011;6249;52.128;9.986;2023-04-03T15:23:04;3.50;;;1.10;;
12369;SDS011;6249;52.128;9.986;2023-04-03T15:26:28;4.37;;;1.40;;
12369;SDS011;6249;52.128;9.986;2023-04-03T15:29:52;6.77;;;1.47;;
12369;SDS011;6249;52.128;9.986;2023-04-03T15:33:12;5.50;;;1.13;;
12369;SDS011;6249;52.128;9.986;2023-04-03T15:36:33;3.80;;;1.67;;
12369;SDS011;6249;52.128;9.986;2023-04-03T15:39:54;7.27;;;2.83;;
12369;SDS011;6249;52.128;9.986;2023-04-03T15:43:15;8.10;;;1.50;;
12369;SDS011;6249;52.128;9.986;2023-04-03T15:46:36;3.93;;;1.23;;
12369;SDS011;6249;52.128;9.986;2023-04-03T15:49:59;5.87;;;2.40;;
12369;SDS011;6249;52.128;9.986;2023-04-03T15:53:22;8.00;;;1.57;;
12369;SDS011;6249;52.128;9.986;2023-04-03T15:56:48;4.23;;;1.07;;
12369;SDS011;6249;52.128;9.986;2023-04-03T16:00:09;5.03;;;1.50;;
12369;SDS011;6249;52.128;9.986;2023-04-03T16:03:30;4.80;;;1.60;;
12369;SDS011;6249;52.128;9.986;2023-04-03T16:06:53;4.37;;;1.33;;
12369;SDS011;6249;52.128;9.986;2023-04-03T16:10:16;3.53;;;1.10;;
12369;SDS011;6249;52.128;9.986;2023-04-03T16:13:37;3.57;;;1.20;;
12369;SDS011;6249;52.128;9.986;2023-04-03T16:17:00;3.60;;;1.33;;
12369;SDS011;6249;52.128;9.986;2023-04-03T16:20:23;4.17;;;1.47;;
12369;SDS011;6249;52.128;9.986;2023-04-03T16:23:50;5.00;;;1.63;;
12369;SDS011;6249;52.128;9.986;2023-04-03T16:27:13;3.80;;;1.27;;
12369;SDS011;6249;52.128;9.986;2023-04-03T16:30:36;4.40;;;1.43;;
12369;SDS011;6249;52.128;9.986;2023-04-03T16:33:56;8.00;;;1.30;;
12369;SDS011;6249;52.128;9.986;2023-04-03T16:37:17;6.10;;;1.20;;
12369;SDS011;6249;52.128;9.986;2023-04-03T16:40:38;7.20;;;1.63;;
12369;SDS011;6249;52.128;9.986;2023-04-03T16:43:58;6.73;;;1.77;;
12369;SDS011;6249;52.128;9.986;2023-04-03T16:47:19;4.17;;;1.57;;
12369;SDS011;6249;52.128;9.986;2023-04-03T16:50:40;4.53;;;1.40;;
12369;SDS011;6249;52.128;9.986;2023-04-03T16:54:00;5.67;;;1.53;;
12369;SDS011;6249;52.128;9.986;2023-04-03T16:57:22;4.67;;;1.73;;
12369;SDS011;6249;52.128;9.986;2023-04-03T17:00:44;8.57;;;1.80;;
12369;SDS011;6249;52.128;9.986;2023-04-03T17:04:07;4.43;;;1.40;;
12369;SDS011;6249;52.128;9.986;2023-04-03T17:07:27;5.17;;;1.53;;
12369;SDS011;6249;52.128;9.986;2023-04-03T17:10:48;6.77;;;1.00;;
12369;SDS011;6249;52.128;9.986;2023-04-03T17:14:10;4.50;;;1.40;;
12369;SDS011;6249;52.128;9.986;2023-04-03T17:17:31;4.77;;;1.57;;
12369;SDS011;6249;52.128;9.986;2023-04-03T17:20:51;3.90;;;1.67;;
12369;SDS011;6249;52.128;9.986;2023-04-03T17:24:14;4.33;;;1.20;;
12369;SDS011;6249;52.128;9.986;2023-04-03T17:27:37;6.07;;;1.60;;
12369;SDS011;6249;52.128;9.986;2023-04-03T17:31:01;6.67;;;2.70;;
12369;SDS011;6249;52.128;9.986;2023-04-03T17:34:22;2.77;;;1.00;;
12369;SDS011;6249;52.128;9.986;2023-04-03T17:37:43;8.23;;;1.83;;
12369;SDS011;6249;52.128;9.986;2023-04-03T17:41:05;7.83;;;2.27;;
12369;SDS011;6249;52.128;9.986;2023-04-03T17:44:27;6.00;;;1.47;;
12369;SDS011;6249;52.128;9.986;2023-04-03T17:47:47;4.37;;;1.40;;
12369;SDS011;6249;52.128;9.986;2023-04-03T17:51:12;7.60;;;2.00;;
12369;SDS011;6249;52.128;9.986;2023-04-03T17:54:34;4.50;;;1.90;;
12369;SDS011;6249;52.128;9.986;2023-04-03T17:58:01;8.90;;;1.90;;
12369;SDS011;6249;52.128;9.986;2023-04-03T18:01:25;5.13;;;1.77;;
12369;SDS011;6249;52.128;9.986;2023-04-03T18:04:49;6.27;;;2.97;;
12369;SDS011;6249;52.128;9.986;2023-04-03T18:08:13;5.50;;;2.53;;
12369;SDS011;6249;52.128;9.986;2023-04-03T18:11:33;6.37;;;2.90;;
12369;SDS011;6249;52.128;9.986;2023-04-03T18:14:57;8.50;;;3.40;;
12369;SDS011;6249;52.128;9.986;2023-04-03T18:18:19;10.20;;;4.53;;
12369;SDS011;6249;52.128;9.986;2023-04-03T18:21:39;7.27;;;2.73;;
12369;SDS011;6249;52.128;9.986;2023-04-03T18:25:04;7.80;;;3.40;;
12369;SDS011;6249;52.128;9.986;2023-04-03T18:28:26;19.77;;;7.17;;
12369;SDS011;6249;52.128;9.986;2023-04-03T18:31:51;7.67;;;3.83;;
12369;SDS011;6249;52.128;9.986;2023-04-03T18:35:16;12.40;;;4.40;;
12369;SDS011;6249;52.128;9.986;2023-04-03T18:38:37;14.03;;;6.20;;
12369;SDS011;6249;52.128;9.986;2023-04-03T18:42:05;10.17;;;4.40;;
12369;SDS011;6249;52.128;9.986;2023-04-03T18:45:33;20.97;;;6.83;;
12369;SDS011;6249;52.128;9.986;2023-04-03T18:48:54;14.47;;;5.60;;
12369;SDS011;6249;52.128;9.986;2023-04-03T18:52:15;11.43;;;5.10;;
12369;SDS011;6249;52.128;9.986;2023-04-03T18:55:35;6.60;;;3.37;;
12369;SDS011;6249;52.128;9.986;2023-04-03T18:58:56;7.50;;;2.93;;
12369;SDS011;6249;52.128;9.986;2023-04-03T19:02:16;6.10;;;2.63;;
12369;SDS011;6249;52.128;9.986;2023-04-03T19:05:40;7.63;;;2.90;;
12369;SDS011;6249;52.128;9.986;2023-04-03T19:09:01;7.77;;;3.20;;
12369;SDS011;6249;52.128;9.986;2023-04-03T19:12:25;30.17;;;11.77;;
12369;SDS011;6249;52.128;9.986;2023-04-03T19:15:48;28.77;;;12.43;;
12369;SDS011;6249;52.128;9.986;2023-04-03T19:19:17;23.43;;;10.37;;
12369;SDS011;6249;52.128;9.986;2023-04-03T19:22:38;14.13;;;7.97;;
12369;SDS011;6249;52.128;9.986;2023-04-03T19:26:00;13.93;;;4.00;;
12369;SDS011;6249;52.128;9.986;2023-04-03T19:29:25;16.13;;;6.00;;
12369;SDS011;6249;52.128;9.986;2023-04-03T19:32:48;19.10;;;7.37;;
12369;SDS011;6249;52.128;9.986;2023-04-03T19:36:13;23.30;;;7.50;;
12369;SDS011;6249;52.128;9.986;2023-04-03T19:39:37;22.20;;;8.43;;
12369;SDS011;6249;52.128;9.986;2023-04-03T19:42:58;36.67;;;13.97;;
12369;SDS011;6249;52.128;9.986;2023-04-03T19:46:22;32.67;;;12.00;;
12369;SDS011;6249;52.128;9.986;2023-04-03T19:49:51;16.07;;;6.50;;
12369;SDS011;6249;52.128;9.986;2023-04-03T19:53:12;27.40;;;11.97;;
12369;SDS011;6249;52.128;9.986;2023-04-03T19:56:38;25.83;;;9.60;;
12369;SDS011;6249;52.128;9.986;2023-04-03T19:59:58;16.60;;;5.53;;
12369;SDS011;6249;52.128;9.986;2023-04-03T20:03:19;18.00;;;6.00;;
12369;SDS011;6249;52.128;9.986;2023-04-03T20:06:40;20.77;;;7.20;;
12369;SDS011;6249;52.128;9.986;2023-04-03T20:10:01;11.67;;;4.80;;
12369;SDS011;6249;52.128;9.986;2023-04-03T20:13:24;10.00;;;2.73;;
12369;SDS011;6249;52.128;9.986;2023-04-03T20:16:44;11.00;;;2.00;;
12369;SDS011;6249;52.128;9.986;2023-04-03T20:20:06;12.10;;;2.00;;
12369;SDS011;6249;52.128;9.986;2023-04-03T20:23:30;9.50;;;2.40;;
12369;SDS011;6249;52.128;9.986;2023-04-03T20:26:50;9.00;;;2.50;;
12369;SDS011;6249;52.128;9.986;2023-04-03T20:30:12;12.53;;;3.03;;
12369;SDS011;6249;52.128;9.986;2023-04-03T20:33:33;8.43;;;2.73;;
12369;SDS011;6249;52.128;9.986;2023-04-03T20:36:56;8.40;;;3.23;;
12369;SDS011;6249;52.128;9.986;2023-04-03T20:40:19;9.50;;;3.43;;
12369;SDS011;6249;52.128;9.986;2023-04-03T20:43:42;9.37;;;2.50;;
12369;SDS011;6249;52.128;9.986;2023-04-03T20:47:05;7.90;;;2.47;;
12369;SDS011;6249;52.128;9.986;2023-04-03T20:50:26;6.60;;;2.10;;
12369;SDS011;6249;52.128;9.986;2023-04-03T20:53:47;7.53;;;1.80;;
12369;SDS011;6249;52.128;9.986;2023-04-03T20:57:08;6.90;;;2.23;;
12369;SDS011;6249;52.128;9.986;2023-04-03T21:00:29;4.60;;;2.60;;
12369;SDS011;6249;52.128;9.986;2023-04-03T21:04:01;8.60;;;2.30;;
12369;SDS011;6249;52.128;9.986;2023-04-03T21:19:08;8.83;;;3.47;;
12369;SDS011;6249;52.128;9.986;2023-04-03T21:22:29;7.87;;;3.63;;
12369;SDS011;6249;52.128;9.986;2023-04-03T21:25:50;8.60;;;3.60;;
12369;SDS011;6249;52.128;9.986;2023-04-03T21:29:13;10.87;;;3.47;;
12369;SDS011;6249;52.128;9.986;2023-04-03T21:32:37;12.13;;;5.40;;
12369;SDS011;6249;52.128;9.986;2023-04-03T21:36:00;13.60;;;5.20;;
12369;SDS011;6249;52.128;9.986;2023-04-03T21:39:20;14.87;;;6.00;;
12369;SDS011;6249;52.128;9.986;2023-04-03T21:42:41;12.73;;;4.70;;
12369;SDS011;6249;52.128;9.986;2023-04-03T21:46:04;8.83;;;4.43;;
12369;SDS011;6249;52.128;9.986;2023-04-03T21:49:27;11.53;;;5.10;;
12369;SDS011;6249;52.128;9.986;2023-04-03T21:52:51;12.87;;;5.50;;
12369;SDS011;6249;52.128;9.986;2023-04-03T21:56:12;14.10;;;4.60;;
12369;SDS011;6249;52.128;9.986;2023-04-03T21:59:35;12.27;;;5.23;;
12369;SDS011;6249;52.128;9.986;2023-04-03T22:02:56;11.77;;;5.30;;
12369;SDS011;6249;52.128;9.986;2023-04-03T22:06:17;12.70;;;5.63;;
12369;SDS011;6249;52.128;9.986;2023-04-03T22:09:38;14.13;;;5.70;;
12369;SDS011;6249;52.128;9.986;2023-04-03T22:12:58;14.90;;;5.80;;
12369;SDS011;6249;52.128;9.986;2023-04-03T22:16:22;10.60;;;5.27;;
12369;SDS011;6249;52.128;9.986;2023-04-03T22:19:45;11.93;;;5.73;;
12369;SDS011;6249;52.128;9.986;2023-04-03T22:23:06;10.50;;;4.90;;